Time;durP1;ratioP1;P1;durP2;ratioP2;P2;SDS_P1;SDS_P2;PMS_P1;PMS_P2;Temp;Humidity;BMP_temperature;BMP_pressure;BME280_temperature;BME280_humidity;BME280_pressure;Samples;Min_cycle;Max_cycle;Signal;HPM_P1;HPM_P2
2021/11/25 00:01:07;;;;;;;7.60;6.78;;;;;;;;;;10272382;28;20068;-66
2021/11/25 00:06:05;;;;;;;8.18;7.07;;;;;;;;;;10287274;28;20068;-65
2021/11/25 00:11:05;;;;;;;7.40;6.68;;;;;;;;;;10291417;28;20069;-65
2021/11/25 00:16:03;;;;;;;7.10;6.20;;;;;;;;;;10272582;28;20087;-65
2021/11/25 00:21:05;;;;;;;10.88;7.22;;;;;;;;;;10272645;28;20064;-65
2021/11/25 00:26:04;;;;;;;7.82;6.93;;;;;;;;;;10274616;28;20450;-65
2021/11/25 00:31:03;;;;;;;9.00;6.60;;;;;;;;;;10272365;28;20060;-66
2021/11/25 00:36:02;;;;;;;10.20;7.43;;;;;;;;;;10271603;28;20111;-65
2021/11/25 00:41:00;;;;;;;7.10;6.20;;;;;;;;;;10283418;28;20076;-65
2021/11/25 00:46:00;;;;;;;11.27;7.90;;;;;;;;;;10272195;28;20075;-65
2021/11/25 00:50:58;;;;;;;8.57;7.47;;;;;;;;;;10271387;28;20080;-65
2021/11/25 00:55:57;;;;;;;8.73;6.93;;;;;;;;;;10283364;28;20103;-65
2021/11/25 01:00:55;;;;;;;8.18;6.95;;;;;;;;;;10271945;28;20077;-65
2021/11/25 01:05:55;;;;;;;8.48;7.45;;;;;;;;;;10285914;28;20090;-64
2021/11/25 01:10:54;;;;;;;8.60;7.22;;;;;;;;;;10271579;28;20099;-65
2021/11/25 01:15:52;;;;;;;9.43;8.05;;;;;;;;;;10271626;28;20080;-65
2021/11/25 01:20:51;;;;;;;10.52;7.50;;;;;;;;;;10271513;28;20318;-64
2021/11/25 01:25:52;;;;;;;10.98;7.88;;;;;;;;;;10271552;28;20045;-65
2021/11/25 01:30:52;;;;;;;11.15;7.75;;;;;;;;;;10271100;28;20064;-65
2021/11/25 01:35:51;;;;;;;12.32;7.38;;;;;;;;;;10269927;28;20096;-65
2021/11/25 01:40:50;;;;;;;9.32;7.93;;;;;;;;;;10285261;28;20061;-65
2021/11/25 01:45:50;;;;;;;18.52;8.45;;;;;;;;;;10285454;28;20510;-65
2021/11/25 01:50:49;;;;;;;13.82;10.00;;;;;;;;;;10281599;28;20212;-65
2021/11/25 01:55:48;;;;;;;13.13;9.43;;;;;;;;;;10288795;28;20083;-65
2021/11/25 02:00:49;;;;;;;17.95;10.85;;;;;;;;;;10277367;28;20069;-65
2021/11/25 02:05:48;;;;;;;18.95;12.75;;;;;;;;;;10277790;28;20116;-66
2021/11/25 02:10:49;;;;;;;14.77;11.13;;;;;;;;;;10287907;28;20045;-66
2021/11/25 02:15:49;;;;;;;13.35;11.95;;;;;;;;;;10275769;28;20080;-66
2021/11/25 02:20:51;;;;;;;12.55;9.60;;;;;;;;;;10276915;28;20145;-66
2021/11/25 02:25:49;;;;;;;10.55;9.20;;;;;;;;;;10277094;28;20072;-66
2021/11/25 02:30:49;;;;;;;13.27;10.32;;;;;;;;;;10276630;28;20061;-66
2021/11/25 02:35:47;;;;;;;13.30;10.00;;;;;;;;;;10276404;28;20080;-66
2021/11/25 02:40:48;;;;;;;11.13;9.13;;;;;;;;;;10294748;28;20080;-65
2021/11/25 02:45:48;;;;;;;9.25;7.60;;;;;;;;;;10290540;28;20087;-64
2021/11/25 02:50:47;;;;;;;8.90;7.93;;;;;;;;;;10274962;28;20065;-65
2021/11/25 02:55:46;;;;;;;7.63;6.82;;;;;;;;;;10282035;28;20098;-65
2021/11/25 03:00:46;;;;;;;10.65;8.55;;;;;;;;;;10275300;28;20076;-65
2021/11/25 03:05:46;;;;;;;12.80;9.13;;;;;;;;;;10275502;28;20068;-64
2021/11/25 03:10:45;;;;;;;10.02;8.23;;;;;;;;;;10275327;28;20077;-65
2021/11/25 03:15:45;;;;;;;16.13;11.73;;;;;;;;;;10274438;28;20076;-65
2021/11/25 03:20:45;;;;;;;17.05;12.60;;;;;;;;;;10274583;28;20044;-65
2021/11/25 03:25:44;;;;;;;14.65;10.20;;;;;;;;;;10273548;28;20080;-65
2021/11/25 03:30:43;;;;;;;15.95;9.32;;;;;;;;;;10274004;28;20072;-66
2021/11/25 03:35:42;;;;;;;15.93;12.50;;;;;;;;;;10273883;28;20088;-65
2021/11/25 03:40:41;;;;;;;11.10;9.32;;;;;;;;;;10286256;28;20068;-65
2021/11/25 03:45:39;;;;;;;9.98;7.85;;;;;;;;;;10287962;28;20434;-65
2021/11/25 03:50:38;;;;;;;15.63;7.55;;;;;;;;;;10273901;28;20083;-65
2021/11/25 03:55:37;;;;;;;9.90;7.10;;;;;;;;;;10273270;28;20477;-65
2021/11/25 04:00:38;;;;;;;9.05;7.85;;;;;;;;;;10272963;28;20060;-65
2021/11/25 04:05:36;;;;;;;48.88;33.30;;;;;;;;;;10284477;28;20076;-65
2021/11/25 04:10:35;;;;;;;37.85;23.50;;;;;;;;;;10273452;28;20490;-66
2021/11/25 04:15:34;;;;;;;119.80;67.40;;;;;;;;;;10272558;28;20083;-66
2021/11/25 04:20:33;;;;;;;84.90;50.33;;;;;;;;;;10272590;28;20499;-66
2021/11/25 04:25:34;;;;;;;115.38;66.32;;;;;;;;;;10272578;28;20065;-65
2021/11/25 04:30:49;;;;;;;125.85;76.75;;;;;;;;;;10272596;28;20064;-66
2021/11/25 04:35:49;;;;;;;73.68;44.22;;;;;;;;;;10272299;28;20080;-65
2021/11/25 04:40:49;;;;;;;89.45;54.60;;;;;;;;;;10284809;28;20064;-66
2021/11/25 04:45:49;;;;;;;40.65;29.65;;;;;;;;;;10294066;28;20080;-67
2021/11/25 04:50:49;;;;;;;35.50;23.30;;;;;;;;;;10272466;28;20045;-66
2021/11/25 04:55:47;;;;;;;21.85;17.60;;;;;;;;;;10272333;28;20523;-67
2021/11/25 05:00:46;;;;;;;32.47;21.58;;;;;;;;;;10278759;28;20080;-65
2021/11/25 05:05:45;;;;;;;40.60;28.42;;;;;;;;;;10282337;28;20072;-65
2021/11/25 05:10:45;;;;;;;30.20;21.92;;;;;;;;;;10282859;28;20040;-66
2021/11/25 05:15:43;;;;;;;23.92;17.05;;;;;;;;;;10286142;28;20076;-66
2021/11/25 05:20:42;;;;;;;13.88;10.95;;;;;;;;;;10290341;28;20077;-66
2021/11/25 05:25:42;;;;;;;12.88;9.63;;;;;;;;;;10285096;28;20080;-64
2021/11/25 05:30:42;;;;;;;35.75;23.02;;;;;;;;;;10288306;28;20381;-64
2021/11/25 05:35:41;;;;;;;9.95;8.27;;;;;;;;;;10289632;28;20115;-66
2021/11/25 05:40:39;;;;;;;14.27;10.73;;;;;;;;;;10290372;28;20080;-66
2021/11/25 05:45:38;;;;;;;18.98;11.15;;;;;;;;;;10292932;28;20045;-66
2021/11/25 05:50:37;;;;;;;22.25;14.50;;;;;;;;;;10279085;28;20496;-65
2021/11/25 05:55:36;;;;;;;15.40;9.90;;;;;;;;;;10277891;28;20504;-65
2021/11/25 06:00:34;;;;;;;9.43;8.15;;;;;;;;;;10277749;28;20485;-66
2021/11/25 06:05:33;;;;;;;14.95;10.45;;;;;;;;;;10277663;28;20064;-66
2021/11/25 06:10:33;;;;;;;11.93;8.70;;;;;;;;;;10277695;28;20080;-65
2021/11/25 06:15:31;;;;;;;10.73;8.40;;;;;;;;;;10279608;28;20072;-65
2021/11/25 06:20:29;;;;;;;12.27;9.15;;;;;;;;;;10288574;28;20068;-65
2021/11/25 06:25:28;;;;;;;17.50;11.75;;;;;;;;;;10276314;28;20052;-66
2021/11/25 06:30:27;;;;;;;17.48;11.70;;;;;;;;;;10276303;28;20079;-66
2021/11/25 06:35:26;;;;;;;13.35;9.15;;;;;;;;;;10276228;28;20083;-66
2021/11/25 06:40:26;;;;;;;15.50;9.98;;;;;;;;;;10288724;28;20065;-65
2021/11/25 06:45:30;;;;;;;13.10;9.98;;;;;;;;;;10289953;28;20057;-66
2021/11/25 06:50:29;;;;;;;10.45;7.57;;;;;;;;;;10276177;28;20076;-65
2021/11/25 06:55:27;;;;;;;14.45;9.52;;;;;;;;;;10274322;28;20048;-66
2021/11/25 07:00:26;;;;;;;15.57;12.48;;;;;;;;;;10273945;28;20045;-65
2021/11/25 07:05:27;;;;;;;11.60;10.07;;;;;;;;;;10275394;28;20072;-65
2021/11/25 07:10:25;;;;;;;15.13;12.73;;;;;;;;;;10285862;28;20182;-66
2021/11/25 07:15:25;;;;;;;12.20;10.50;;;;;;;;;;10274676;28;20075;-66
2021/11/25 07:20:24;;;;;;;14.82;11.55;;;;;;;;;;10275059;28;20517;-66
2021/11/25 07:25:25;;;;;;;11.48;9.85;;;;;;;;;;10274306;28;20072;-66
2021/11/25 07:30:23;;;;;;;13.68;12.15;;;;;;;;;;10274092;28;20075;-66
2021/11/25 07:35:23;;;;;;;14.20;11.35;;;;;;;;;;10273943;28;20099;-65
2021/11/25 07:40:23;;;;;;;11.52;9.25;;;;;;;;;;10273250;28;20075;-65
2021/11/25 07:45:24;;;;;;;10.50;8.73;;;;;;;;;;10287973;28;20080;-64
2021/11/25 07:50:26;;;;;;;9.40;8.23;;;;;;;;;;10273799;28;20636;-66
2021/11/25 07:55:25;;;;;;;8.85;7.72;;;;;;;;;;10273797;28;20077;-65
2021/11/25 08:00:27;;;;;;;7.90;6.75;;;;;;;;;;10272786;28;20124;-65
2021/11/25 08:05:26;;;;;;;8.10;6.57;;;;;;;;;;10281335;28;20075;-66
2021/11/25 08:10:26;;;;;;;15.40;9.70;;;;;;;;;;10273155;28;20080;-65
2021/11/25 08:15:26;;;;;;;8.63;6.78;;;;;;;;;;10272635;28;20163;-65
2021/11/25 08:20:24;;;;;;;10.70;7.53;;;;;;;;;;10283591;28;20068;-66
2021/11/25 08:25:23;;;;;;;9.10;6.72;;;;;;;;;;10279252;28;20125;-66
2021/11/25 08:30:23;;;;;;;8.73;6.28;;;;;;;;;;10281898;28;20080;-66
2021/11/25 08:35:23;;;;;;;8.18;5.88;;;;;;;;;;10283267;28;20111;-66
2021/11/25 08:40:21;;;;;;;6.70;5.05;;;;;;;;;;10284848;28;20068;-66
2021/11/25 08:45:20;;;;;;;6.13;5.38;;;;;;;;;;10286322;28;20521;-66
2021/11/25 08:50:19;;;;;;;5.28;4.78;;;;;;;;;;10277784;28;20073;-66
2021/11/25 08:55:20;;;;;;;8.30;6.68;;;;;;;;;;10286056;28;20052;-66
2021/11/25 09:00:22;;;;;;;6.00;5.40;;;;;;;;;;10278436;28;20116;-66
2021/11/25 09:05:21;;;;;;;6.10;5.07;;;;;;;;;;10278664;28;20547;-66
2021/11/25 09:10:21;;;;;;;12.15;8.98;;;;;;;;;;10278502;28;20080;-64
2021/11/25 09:15:20;;;;;;;5.65;3.95;;;;;;;;;;10276736;28;20049;-65
2021/11/25 09:20:18;;;;;;;5.18;4.60;;;;;;;;;;10277741;28;20095;-65
2021/11/25 09:25:16;;;;;;;4.82;3.78;;;;;;;;;;10285608;28;20084;-65
2021/11/25 09:30:16;;;;;;;5.90;4.28;;;;;;;;;;10288225;28;20082;-65
2021/11/25 09:35:14;;;;;;;6.63;4.30;;;;;;;;;;10277335;28;20080;-64
2021/11/25 09:40:21;;;;;;;6.05;4.05;;;;;;;;;;10275319;28;20068;-65
2021/11/25 09:45:23;;;;;;;3.63;3.30;;;;;;;;;;10289167;28;20084;-65
2021/11/25 09:50:22;;;;;;;4.05;3.38;;;;;;;;;;10277190;28;20533;-66
2021/11/25 09:55:20;;;;;;;5.75;3.80;;;;;;;;;;10287729;28;20057;-65
2021/11/25 10:00:19;;;;;;;5.10;4.13;;;;;;;;;;10276919;28;20073;-65
2021/11/25 10:05:19;;;;;;;3.95;3.65;;;;;;;;;;10275980;28;20045;-65
2021/11/25 10:10:26;;;;;;;4.25;3.85;;;;;;;;;;10276001;28;20198;-65
2021/11/25 10:15:28;;;;;;;5.82;4.85;;;;;;;;;;10277320;28;20540;-65
2021/11/25 10:20:32;;;;;;;5.38;4.20;;;;;;;;;;10276885;28;20456;-65
2021/11/25 10:25:40;;;;;;;4.20;3.80;;;;;;;;;;10276019;28;20501;-65
2021/11/25 10:30:38;;;;;;;6.85;4.03;;;;;;;;;;10286140;28;20072;-65
2021/11/25 10:35:48;;;;;;;4.68;4.28;;;;;;;;;;10276188;28;20076;-65
2021/11/25 10:40:46;;;;;;;6.32;3.65;;;;;;;;;;10276522;28;20076;-67
2021/11/25 10:45:45;;;;;;;5.68;3.88;;;;;;;;;;10276408;28;20080;-66
2021/11/25 10:50:45;;;;;;;5.70;3.72;;;;;;;;;;10294207;28;20045;-66
2021/11/25 10:55:44;;;;;;;4.68;3.88;;;;;;;;;;10281270;28;20077;-66
2021/11/25 11:00:45;;;;;;;3.45;3.15;;;;;;;;;;10275498;28;20084;-66
2021/11/25 11:05:49;;;;;;;4.90;3.35;;;;;;;;;;10274831;28;20079;-66
2021/11/25 11:10:51;;;;;;;4.63;3.42;;;;;;;;;;10275225;28;20110;-66
2021/11/25 11:15:57;;;;;;;3.95;3.55;;;;;;;;;;10285435;28;20524;-66
2021/11/25 11:20:55;;;;;;;;;;;;;;;;;;10286120;28;20083;-66
2021/11/25 11:25:55;;;;;;;5.10;4.43;;;;;;;;;;10274145;28;20323;-66
2021/11/25 11:30:53;;;;;;;4.68;3.80;;;;;;;;;;10274621;28;20049;-66
2021/11/25 11:36:01;;;;;;;4.55;3.33;;;;;;;;;;10321621;27;20379;-65
2021/11/25 11:40:59;;;;;;;10.95;5.13;;;;;;;;;;10319742;28;20061;-66
2021/11/25 11:45:58;;;;;;;4.32;3.70;;;;;;;;;;10328441;28;20068;-66
2021/11/25 11:50:57;;;;;;;3.83;3.42;;;;;;;;;;10305653;28;20068;-66
2021/11/25 11:55:59;;;;;;;3.33;2.65;;;;;;;;;;10306141;28;20533;-66
2021/11/25 12:00:58;;;;;;;4.97;4.20;;;;;;;;;;10306334;28;20040;-66
2021/11/25 12:06:28;;;;;;;8.77;5.85;;;;;;;;;;10306203;28;20071;-66
2021/11/25 12:11:38;;;;;;;6.18;3.60;;;;;;;;;;10317647;28;20487;-66
2021/11/25 12:16:37;;;;;;;7.75;5.75;;;;;;;;;;10306999;28;20502;-66
2021/11/25 12:21:40;;;;;;;7.05;5.60;;;;;;;;;;10305853;28;20077;-66
2021/11/25 12:26:53;;;;;;;11.50;8.57;;;;;;;;;;10319718;28;20075;-66
2021/11/25 12:31:54;;;;;;;11.23;6.90;;;;;;;;;;10310974;28;20077;-66
2021/11/25 12:36:52;;;;;;;16.13;13.20;;;;;;;;;;10304757;28;20435;-66
2021/11/25 12:41:55;;;;;;;6.82;4.50;;;;;;;;;;10306309;28;20342;-66
2021/11/25 12:46:55;;;;;;;10.02;7.35;;;;;;;;;;10292329;28;20069;-66
2021/11/25 12:51:53;;;;;;;8.68;6.47;;;;;;;;;;10275952;28;20152;-65
2021/11/25 12:56:52;;;;;;;7.22;5.90;;;;;;;;;;10276426;28;20488;-65
2021/11/25 13:01:51;;;;;;;8.57;6.15;;;;;;;;;;10284816;28;20128;-65
2021/11/25 13:06:52;;;;;;;8.27;6.30;;;;;;;;;;10284006;28;20433;-65
2021/11/25 13:11:51;;;;;;;6.07;4.75;;;;;;;;;;10285958;28;20069;-66
2021/11/25 13:16:50;;;;;;;12.30;5.45;;;;;;;;;;10276618;28;20061;-66
2021/11/25 13:21:49;;;;;;;5.72;3.85;;;;;;;;;;10277302;28;20107;-66
2021/11/25 13:26:54;;;;;;;12.85;11.45;;;;;;;;;;10282379;28;20080;-66
2021/11/25 13:31:52;;;;;;;8.17;7.40;;;;;;;;;;10276028;28;20206;-66
2021/11/25 13:36:52;;;;;;;20.80;10.25;;;;;;;;;;10276400;28;20064;-67
2021/11/25 13:41:52;;;;;;;16.88;9.52;;;;;;;;;;10276771;28;20541;-66
2021/11/25 13:46:53;;;;;;;9.27;5.55;;;;;;;;;;10297014;28;20037;-65
2021/11/25 13:51:51;;;;;;;16.25;9.68;;;;;;;;;;10295379;28;20064;-66
2021/11/25 13:56:51;;;;;;;15.45;10.35;;;;;;;;;;10274296;28;20533;-66
2021/11/25 14:01:50;;;;;;;9.05;4.93;;;;;;;;;;10274289;28;20414;-66
2021/11/25 14:06:50;;;;;;;7.43;5.75;;;;;;;;;;10275605;28;20545;-66
2021/11/25 14:11:52;;;;;;;15.55;9.90;;;;;;;;;;10284264;28;20045;-66
2021/11/25 14:16:52;;;;;;;16.02;11.05;;;;;;;;;;10274818;28;20509;-66
2021/11/25 14:21:52;;;;;;;22.95;15.60;;;;;;;;;;10275796;28;20533;-66
2021/11/25 14:32:23;;;;;;;22.80;15.18;;;;;;;;;;10268126;28;20080;-66
2021/11/25 14:37:23;;;;;;;17.95;13.65;;;;;;;;;;10275968;28;20088;-66
2021/11/25 14:42:23;;;;;;;16.08;12.23;;;;;;;;;;10288216;28;20052;-67
2021/11/25 14:47:21;;;;;;;14.98;10.73;;;;;;;;;;10281006;28;20072;-66
2021/11/25 14:52:21;;;;;;;12.85;8.75;;;;;;;;;;10276468;28;20071;-66
2021/11/25 14:57:25;;;;;;;12.98;9.00;;;;;;;;;;10274660;28;20137;-66
2021/11/25 15:02:33;;;;;;;16.92;9.27;;;;;;;;;;10273216;28;20466;-66
2021/11/25 15:07:32;;;;;;;29.30;19.38;;;;;;;;;;10275031;28;20096;-66
2021/11/25 15:12:31;;;;;;;48.70;29.88;;;;;;;;;;10283191;28;20104;-66
2021/11/25 15:17:32;;;;;;;29.73;20.80;;;;;;;;;;10278635;28;20072;-66
2021/11/25 15:22:30;;;;;;;76.60;50.45;;;;;;;;;;10274893;28;20072;-65
2021/11/25 15:27:29;;;;;;;74.03;45.88;;;;;;;;;;10277957;28;20064;-65
2021/11/25 15:32:29;;;;;;;92.90;56.10;;;;;;;;;;10272136;28;20065;-66
2021/11/25 15:37:28;;;;;;;84.82;56.08;;;;;;;;;;10274160;28;20083;-66
2021/11/25 15:42:27;;;;;;;51.45;33.45;;;;;;;;;;10287688;28;20036;-66
2021/11/25 15:47:25;;;;;;;35.88;25.40;;;;;;;;;;10279419;28;20368;-66
2021/11/25 15:52:25;;;;;;;33.45;14.80;;;;;;;;;;10276785;28;20458;-66
2021/11/25 15:57:23;;;;;;;19.25;12.48;;;;;;;;;;10273055;28;20091;-66
2021/11/25 16:02:22;;;;;;;15.23;8.98;;;;;;;;;;10282893;28;20073;-66
2021/11/25 16:07:21;;;;;;;10.32;7.40;;;;;;;;;;10272338;28;20429;-66
2021/11/25 16:12:21;;;;;;;12.35;8.65;;;;;;;;;;10271475;28;20056;-66
2021/11/25 16:17:19;;;;;;;24.60;16.48;;;;;;;;;;10273330;28;20099;-66
2021/11/25 16:22:17;;;;;;;18.08;11.90;;;;;;;;;;10289416;28;20044;-66
2021/11/25 16:27:16;;;;;;;16.38;12.32;;;;;;;;;;10285061;28;20066;-66
2021/11/25 16:32:15;;;;;;;13.05;10.48;;;;;;;;;;10278431;28;20073;-66
2021/11/25 16:37:14;;;;;;;17.25;12.10;;;;;;;;;;10280904;28;20075;-65
2021/11/25 16:42:12;;;;;;;16.50;13.32;;;;;;;;;;10290816;28;20068;-65
2021/11/25 16:52:30;;;;;;;16.20;11.13;;;;;;;;;;10296905;28;20075;-65
2021/11/25 16:57:28;;;;;;;15.55;10.38;;;;;;;;;;10288520;28;20079;-65
2021/11/25 17:02:26;;;;;;;13.48;9.18;;;;;;;;;;10278902;28;20072;-66
2021/11/25 17:07:25;;;;;;;14.90;10.18;;;;;;;;;;10277897;28;20080;-66
2021/11/25 17:12:25;;;;;;;11.98;8.43;;;;;;;;;;10279226;28;20073;-65
2021/11/25 17:17:23;;;;;;;10.23;6.55;;;;;;;;;;10276938;28;20072;-64
2021/11/25 17:22:21;;;;;;;11.60;8.15;;;;;;;;;;10277149;28;20092;-66
2021/11/25 17:27:19;;;;;;;12.15;8.77;;;;;;;;;;10276576;28;20075;-66
2021/11/25 17:32:19;;;;;;;11.90;8.63;;;;;;;;;;10275825;28;20082;-66
2021/11/25 17:37:17;;;;;;;10.60;7.97;;;;;;;;;;10278451;28;20072;-66
2021/11/25 17:42:16;;;;;;;18.15;12.30;;;;;;;;;;10290936;28;20060;-66
2021/11/25 17:47:15;;;;;;;7.10;5.95;;;;;;;;;;10283540;28;20060;-66
2021/11/25 17:52:15;;;;;;;6.93;5.65;;;;;;;;;;10279137;28;20160;-66
2021/11/25 17:57:13;;;;;;;8.25;6.13;;;;;;;;;;10286023;28;20530;-66
2021/11/25 18:02:12;;;;;;;16.90;10.90;;;;;;;;;;10275478;28;20084;-66
2021/11/25 18:07:10;;;;;;;13.27;9.38;;;;;;;;;;10275287;28;20069;-66
2021/11/25 18:12:11;;;;;;;12.02;7.07;;;;;;;;;;10277595;28;20075;-66
2021/11/25 18:17:09;;;;;;;10.65;6.90;;;;;;;;;;10285856;28;20072;-66
2021/11/25 18:22:08;;;;;;;13.68;9.98;;;;;;;;;;10274226;28;20072;-66
2021/11/25 18:27:07;;;;;;;10.27;7.55;;;;;;;;;;10275006;28;20044;-66
2021/11/25 18:32:08;;;;;;;8.70;7.03;;;;;;;;;;10276827;28;20052;-66
2021/11/25 18:37:06;;;;;;;11.88;9.32;;;;;;;;;;10282598;28;20073;-66
2021/11/25 18:42:07;;;;;;;17.23;11.10;;;;;;;;;;10276388;28;20072;-66
2021/11/25 18:47:06;;;;;;;81.20;46.58;;;;;;;;;;10285201;28;20078;-66
2021/11/25 18:52:07;;;;;;;108.55;56.78;;;;;;;;;;10275958;28;20045;-66
2021/11/25 18:57:05;;;;;;;45.58;25.70;;;;;;;;;;10272959;28;20135;-66
2021/11/25 19:02:04;;;;;;;73.45;45.75;;;;;;;;;;10272546;28;20091;-66
2021/11/25 19:07:03;;;;;;;51.83;33.13;;;;;;;;;;10272741;28;20076;-66
2021/11/25 19:12:06;;;;;;;36.88;25.33;;;;;;;;;;10273064;28;20077;-66
2021/11/25 19:17:04;;;;;;;39.75;28.60;;;;;;;;;;10272772;28;20446;-66
2021/11/25 19:22:03;;;;;;;100.10;63.05;;;;;;;;;;10272306;28;20080;-66
2021/11/25 19:27:01;;;;;;;141.18;83.63;;;;;;;;;;10271499;28;20163;-65
2021/11/25 19:32:02;;;;;;;39.75;27.58;;;;;;;;;;10271146;28;20083;-66
2021/11/25 19:37:01;;;;;;;77.15;49.05;;;;;;;;;;10271495;28;20064;-65
2021/11/25 19:41:59;;;;;;;21.48;17.15;;;;;;;;;;10283330;28;20060;-63
2021/11/25 19:46:58;;;;;;;7.60;6.75;;;;;;;;;;10268046;28;20052;-65
2021/11/25 19:52:00;;;;;;;10.48;8.32;;;;;;;;;;10264375;28;20076;-66
2021/11/25 19:56:58;;;;;;;10.77;8.65;;;;;;;;;;10276352;28;20068;-66
2021/11/25 20:01:59;;;;;;;10.90;9.32;;;;;;;;;;10281506;28;20076;-66
2021/11/25 20:06:57;;;;;;;17.58;12.68;;;;;;;;;;10278835;28;20502;-66
2021/11/25 20:11:58;;;;;;;24.83;18.63;;;;;;;;;;10281224;28;20512;-66
2021/11/25 20:16:56;;;;;;;69.03;37.88;;;;;;;;;;10283033;28;20072;-66
2021/11/25 20:21:55;;;;;;;10.13;9.00;;;;;;;;;;10279178;28;20087;-65
2021/11/25 20:26:53;;;;;;;16.83;11.27;;;;;;;;;;10278268;28;20057;-67
2021/11/25 20:31:53;;;;;;;19.13;15.15;;;;;;;;;;10278667;28;20084;-66
2021/11/25 20:36:51;;;;;;;12.23;8.65;;;;;;;;;;10295286;28;20437;-66
2021/11/25 20:41:50;;;;;;;6.57;5.40;;;;;;;;;;10291189;28;20130;-66
2021/11/25 20:46:49;;;;;;;11.65;9.15;;;;;;;;;;10279108;28;20061;-66
2021/11/25 20:51:49;;;;;;;10.57;9.20;;;;;;;;;;10277689;28;20428;-65
2021/11/25 20:56:47;;;;;;;26.45;17.08;;;;;;;;;;10288977;28;20068;-66
2021/11/25 21:01:46;;;;;;;12.18;9.88;;;;;;;;;;10291075;28;20496;-66
2021/11/25 21:06:44;;;;;;;16.73;11.27;;;;;;;;;;10277971;28;20076;-65
2021/11/25 21:11:44;;;;;;;14.85;10.02;;;;;;;;;;10282479;28;20087;-66
2021/11/25 21:16:46;;;;;;;11.25;7.22;;;;;;;;;;10284228;28;20076;-66
2021/11/25 21:21:45;;;;;;;9.80;7.13;;;;;;;;;;10284642;28;20501;-64
2021/11/25 21:26:57;;;;;;;20.30;11.87;;;;;;;;;;10276898;28;20463;-64
2021/11/25 21:31:57;;;;;;;57.92;32.05;;;;;;;;;;10314085;28;20080;-65
2021/11/25 21:36:55;;;;;;;18.40;12.68;;;;;;;;;;10282350;28;20091;-66
2021/11/25 21:41:55;;;;;;;23.25;15.65;;;;;;;;;;10292106;28;20068;-66
2021/11/25 21:46:55;;;;;;;23.95;14.80;;;;;;;;;;10291619;28;20080;-65
2021/11/25 21:51:53;;;;;;;22.70;14.93;;;;;;;;;;10296571;28;20071;-65
2021/11/25 21:56:51;;;;;;;9.32;7.15;;;;;;;;;;10299139;28;20458;-65
2021/11/25 22:01:51;;;;;;;15.25;11.05;;;;;;;;;;10285193;28;20057;-66
2021/11/25 22:06:49;;;;;;;19.63;15.20;;;;;;;;;;10273660;28;20072;-66
2021/11/25 22:11:48;;;;;;;21.50;17.42;;;;;;;;;;10272345;28;20490;-65
2021/11/25 22:16:48;;;;;;;37.80;25.20;;;;;;;;;;10284575;28;20060;-66
2021/11/25 22:24:56;;;;;;;15.63;12.48;;;;;;;;;;10274881;28;20032;-66
2021/11/25 22:27:15;;;;;;;19.92;14.95;;;;;;;;;;10276480;28;20064;-66
2021/11/25 22:32:14;;;;;;;22.27;16.42;;;;;;;;;;10285015;28;20087;-66
2021/11/25 22:37:14;;;;;;;25.58;19.83;;;;;;;;;;10273957;28;20083;-66
2021/11/25 22:42:12;;;;;;;46.20;33.83;;;;;;;;;;10275816;28;20437;-66
2021/11/25 22:47:11;;;;;;;8.15;6.85;;;;;;;;;;10293841;28;20068;-66
2021/11/25 22:52:09;;;;;;;8.43;7.57;;;;;;;;;;10271026;28;20485;-66
2021/11/25 22:57:09;;;;;;;6.97;6.28;;;;;;;;;;10270779;28;20065;-66
2021/11/25 23:02:08;;;;;;;7.47;6.78;;;;;;;;;;10280015;28;20071;-66
2021/11/25 23:07:06;;;;;;;12.02;8.70;;;;;;;;;;10280238;28;20056;-66
2021/11/25 23:12:05;;;;;;;15.02;10.93;;;;;;;;;;10279457;28;20064;-67
2021/11/25 23:17:05;;;;;;;9.15;7.43;;;;;;;;;;10271636;28;20107;-66
2021/11/25 23:22:03;;;;;;;8.05;7.10;;;;;;;;;;10274823;28;20080;-66
2021/11/25 23:27:18;;;;;;;5.30;4.75;;;;;;;;;;10281238;28;20477;-66
2021/11/25 23:32:18;;;;;;;5.45;4.75;;;;;;;;;;10281465;28;20080;-66
2021/11/25 23:37:16;;;;;;;6.40;5.68;;;;;;;;;;10280491;28;20510;-66
2021/11/25 23:42:14;;;;;;;8.93;6.00;;;;;;;;;;10274720;28;20162;-66
2021/11/25 23:47:16;;;;;;;8.40;6.13;;;;;;;;;;10279777;28;20522;-67
2021/11/25 23:52:15;;;;;;;5.43;4.93;;;;;;;;;;10287110;28;20079;-66
2021/11/25 23:57:14;;;;;;;6.07;5.47;;;;;;;;;;10271994;28;20064;-65
